メインページ
METAR-TAF:

METAR-TAF

空港 :

ケアンズ国際空港

ケアンズ, オーストラリア

緯度: 16-53S, 経度: 145-45E, 海抜: 3m

現時点の気象観測

当レポートは22分前の06:30(UTC)に作成
南東の風 14kt
気温 25°C
湿度 54%
気圧 1016 hPa
視程10km以上
高度2800ftの雲はほとんどない

METAR: YBCS 150630Z 13014KT 9999 FEW028 25/15 Q1016 NOSIG

時間: 16:52 (06:52 UTC)

予報

当レポートは1時間33分前の05:19(UTC)に作成
予報は15日の 06時(UTC)から 16日の 06時(UTC)まで有効
東/南東の風 14kt
視程10km以上
高度2500ftの雲は散在している
15日の 0800時(UTC)から
南/南東の風 8kt
視程10km以上
高度2500ftの雲は散在している
高度4000ftの雲は散在している
16日の 0100時(UTC)から
東/南東の風 14kt
視程10km以上
高度3000ftの雲はほとんどない

TAF: YBCS 150519Z 1506/1606 12014KT 9999 SCT025 FM150800 15008KT 9999 SCT025 SCT040 FM160100 11014KT 9999 FEW030

4,000以上の空港の気象観測と天気予報(METAR報とTAF報)

利用可能な観測所は地図上に黄色い丸と赤い丸で示す。

丸の上にカーソルを重ねると観測所名を参照できる。

次にクリックすると気象観測と天気予報を参照できる。

マップの切り替え:黒色「×」印の緑ボタンをクリックして拡大、「-」印の緑ボタンをクリックして縮小、緑色の三角印をクリックして隣りの地図に切り替え


METAR-TAF: